Mount Pleasant, UT

1:01 AM MDT on October 23, 2014 (GMT -0600)
KUTSPRIN7 | Change Station
CLOSE
Current Station
Personal Weather Station
Location: Spring City, UT
Elevation: 5843 ft
Nearby Weather Stations

Elev 5843 ft 39.48 °N, 111.49 °W | Updated 15 minutes ago

Clear
Clear
41.4 °F
Feels Like 41 °F
N
2.0
Wind Variable Wind from SE
Gusts 4.0 mph

Today
High -- | Low -- °F
--% Chance of Precip.
Yesterday
High -- | Low -- °F
Precip. -- in
7:44 AM 6:35 PM
Waning Crescent, 0% visible
Pressure 30.13 in
Visibility 10.0 miles
Clouds Clear
Windchill 41 °F
Dew Point 26 °F
Humidity 54%
Rainfall 0.00 in
Snow Depth Not available.
UV 0.0 out of 12
Pollen 1.30 out of 12
Air Quality Not available.
Flu Activity Sporadic
METAR KPUC 230653Z AUTO 01009KT 10SM CLR 08/M02 A3021 RMK AO2 SLP202 T00781022 401890039 TSNO

More Conditions Fewer Conditions

Pressure 30.13 in
Visibility 10.0 miles
Clouds Clear
Windchill 41 °F
Dew Point 26 °F
Humidity 54%
Rainfall 0.00 in
Snow Depth Not available.
UV 0.0 out of 12
Pollen 1.30 out of 12
Air Quality Not available.
Flu Activity Sporadic
METAR KPUC 230653Z AUTO 01009KT 10SM CLR 08/M02 A3021 RMK AO2 SLP202 T00781022 401890039 TSNO

More Conditions Fewer Conditions

10-Day Weather Forecast

Almanac

Astronomy

Oct. 23, 2014 Rise Set
Actual Time 7:44 AM MDT 6:35 PM MDT
Civil Twilight 7:17 AM MDT 7:02 PM MDT
Nautical Twilight 6:45 AM MDT 7:34 PM MDT
Astronomical Twilight 6:14 AM MDT 8:05 PM MDT
Moon 7:27 AM MDT 6:39 PM MDT
Length of Visible Light 11h 45m
Length of Day
10h 50m
Tomorrow will be 2m 24s shorter.
Waning Crescent, 0% of the Moon is Illuminated
Today
Waning Crescent
Oct 23
New
Oct 30
First Quarter
Nov 6
Full
Nov 14
Last Quarter

Today's Extremes

State Highs State Lows

Community

WunderPhotos

Upload Photos

1,764,194 photos uploaded!

Nearby

Snow Depth

Station Depth Elevation
Clear Creek #1 0 in 9200 ft
Clear Creek #2 0 in 8300 ft
Payson R.S. 0 in 8050 ft
Pickle Keg 0 in 9600 ft
Strawberry Divide 0 in 8400 ft

Earthquake Activity

City Distance Mag. Time & Date
Ferron, Utah 40 miles 2.5 10:53 PM MDT
2014-10-21
Minimum magnitude displayed is 2.5.

Coastal Water Temperatures

Place Temperature
No Stations Reporting

Nearby Weather Stations